sensor_id;sensor_type;location;lat;lon;timestamp;temperature;humidity
4604;DHT22;2314;48.272;11.562;2023-02-02T00:02:05;4.00;99.90
4604;DHT22;2314;48.272;11.562;2023-02-02T00:04:35;4.00;99.90
4604;DHT22;2314;48.272;11.562;2023-02-02T00:07:02;4.00;99.90
4604;DHT22;2314;48.272;11.562;2023-02-02T00:09:31;4.00;99.90
4604;DHT22;2314;48.272;11.562;2023-02-02T00:11:59;4.00;99.90
4604;DHT22;2314;48.272;11.562;2023-02-02T00:14:26;4.00;99.90
4604;DHT22;2314;48.272;11.562;2023-02-02T00:16:54;3.90;99.90
4604;DHT22;2314;48.272;11.562;2023-02-02T00:19:24;3.90;99.90
4604;DHT22;2314;48.272;11.562;2023-02-02T00:21:54;3.90;99.90
4604;DHT22;2314;48.272;11.562;2023-02-02T00:24:21;3.90;99.90
4604;DHT22;2314;48.272;11.562;2023-02-02T00:26:51;3.90;99.90
4604;DHT22;2314;48.272;11.562;2023-02-02T00:29:20;3.90;99.90
4604;DHT22;2314;48.272;11.562;2023-02-02T00:31:49;3.80;99.90
4604;DHT22;2314;48.272;11.562;2023-02-02T00:34:16;3.80;99.90
4604;DHT22;2314;48.272;11.562;2023-02-02T00:36:44;3.70;99.90
4604;DHT22;2314;48.272;11.562;2023-02-02T00:39:15;3.60;99.90
4604;DHT22;2314;48.272;11.562;2023-02-02T00:41:43;3.60;99.90
4604;DHT22;2314;48.272;11.562;2023-02-02T00:44:10;3.60;99.90
4604;DHT22;2314;48.272;11.562;2023-02-02T00:46:54;3.50;99.90
4604;DHT22;2314;48.272;11.562;2023-02-02T00:49:22;3.50;99.90
4604;DHT22;2314;48.272;11.562;2023-02-02T00:51:49;3.50;99.90
4604;DHT22;2314;48.272;11.562;2023-02-02T00:54:17;3.40;99.90
4604;DHT22;2314;48.272;11.562;2023-02-02T00:56:44;3.40;99.90
4604;DHT22;2314;48.272;11.562;2023-02-02T00:59:11;3.50;99.90
4604;DHT22;2314;48.272;11.562;2023-02-02T01:01:38;3.50;99.90
4604;DHT22;2314;48.272;11.562;2023-02-02T01:04:06;3.50;99.90
4604;DHT22;2314;48.272;11.562;2023-02-02T01:06:33;3.50;99.90
4604;DHT22;2314;48.272;11.562;2023-02-02T01:09:00;3.50;99.90
4604;DHT22;2314;48.272;11.562;2023-02-02T01:11:28;3.60;99.90
4604;DHT22;2314;48.272;11.562;2023-02-02T01:13:56;3.60;99.90
4604;DHT22;2314;48.272;11.562;2023-02-02T01:16:23;3.60;99.90
4604;DHT22;2314;48.272;11.562;2023-02-02T01:18:50;3.60;99.90
4604;DHT22;2314;48.272;11.562;2023-02-02T01:21:17;3.60;99.90
4604;DHT22;2314;48.272;11.562;2023-02-02T01:23:44;3.60;99.90
4604;DHT22;2314;48.272;11.562;2023-02-02T01:26:12;3.60;99.90
4604;DHT22;2314;48.272;11.562;2023-02-02T01:28:41;3.60;99.90
4604;DHT22;2314;48.272;11.562;2023-02-02T01:31:10;3.50;99.90
4604;DHT22;2314;48.272;11.562;2023-02-02T01:33:38;3.50;99.90
4604;DHT22;2314;48.272;11.562;2023-02-02T01:36:07;3.50;99.90
4604;DHT22;2314;48.272;11.562;2023-02-02T01:38:36;3.50;99.90
4604;DHT22;2314;48.272;11.562;2023-02-02T01:41:04;3.50;99.90
4604;DHT22;2314;48.272;11.562;2023-02-02T01:43:52;3.60;99.90
4604;DHT22;2314;48.272;11.562;2023-02-02T01:46:22;3.60;99.90
4604;DHT22;2314;48.272;11.562;2023-02-02T01:48:54;3.70;99.90
4604;DHT22;2314;48.272;11.562;2023-02-02T01:51:32;3.70;99.90
4604;DHT22;2314;48.272;11.562;2023-02-02T01:54:05;3.70;99.90
4604;DHT22;2314;48.272;11.562;2023-02-02T01:56:38;3.70;99.90
4604;DHT22;2314;48.272;11.562;2023-02-02T01:59:09;3.70;99.90
4604;DHT22;2314;48.272;11.562;2023-02-02T02:01:37;3.80;99.90
4604;DHT22;2314;48.272;11.562;2023-02-02T02:04:05;3.80;99.90
4604;DHT22;2314;48.272;11.562;2023-02-02T02:06:33;3.80;99.90
4604;DHT22;2314;48.272;11.562;2023-02-02T02:09:02;3.80;99.90
4604;DHT22;2314;48.272;11.562;2023-02-02T02:11:31;3.80;99.90
4604;DHT22;2314;48.272;11.562;2023-02-02T02:14:01;3.80;99.90
4604;DHT22;2314;48.272;11.562;2023-02-02T02:17:13;3.70;99.90
4604;DHT22;2314;48.272;11.562;2023-02-02T02:20:29;3.80;99.90
4604;DHT22;2314;48.272;11.562;2023-02-02T02:24:17;3.80;99.90
4604;DHT22;2314;48.272;11.562;2023-02-02T02:34:18;3.90;99.90
4604;DHT22;2314;48.272;11.562;2023-02-02T02:36:52;3.80;99.90
4604;DHT22;2314;48.272;11.562;2023-02-02T02:39:26;3.80;99.90
4604;DHT22;2314;48.272;11.562;2023-02-02T02:41:59;3.80;99.90
4604;DHT22;2314;48.272;11.562;2023-02-02T02:44:30;3.80;99.90
4604;DHT22;2314;48.272;11.562;2023-02-02T02:46:58;3.80;99.90
4604;DHT22;2314;48.272;11.562;2023-02-02T02:49:27;3.80;99.90
4604;DHT22;2314;48.272;11.562;2023-02-02T02:51:55;3.90;99.90
4604;DHT22;2314;48.272;11.562;2023-02-02T02:54:26;3.90;99.90
4604;DHT22;2314;48.272;11.562;2023-02-02T02:57:08;3.80;99.90
4604;DHT22;2314;48.272;11.562;2023-02-02T02:59:50;3.80;99.90
4604;DHT22;2314;48.272;11.562;2023-02-02T03:02:32;3.80;99.90
4604;DHT22;2314;48.272;11.562;2023-02-02T03:05:16;3.80;99.90
4604;DHT22;2314;48.272;11.562;2023-02-02T03:07:56;3.70;99.90
4604;DHT22;2314;48.272;11.562;2023-02-02T03:10:30;3.70;99.90
4604;DHT22;2314;48.272;11.562;2023-02-02T03:12:58;3.70;99.90
4604;DHT22;2314;48.272;11.562;2023-02-02T03:15:25;3.80;99.90
4604;DHT22;2314;48.272;11.562;2023-02-02T03:17:52;3.80;99.90
4604;DHT22;2314;48.272;11.562;2023-02-02T03:20:21;3.60;99.90
4604;DHT22;2314;48.272;11.562;2023-02-02T03:22:48;3.50;99.90
4604;DHT22;2314;48.272;11.562;2023-02-02T03:25:15;3.50;99.90
4604;DHT22;2314;48.272;11.562;2023-02-02T03:27:42;3.40;99.90
4604;DHT22;2314;48.272;11.562;2023-02-02T03:30:11;3.40;99.90
4604;DHT22;2314;48.272;11.562;2023-02-02T03:32:39;3.40;99.90
4604;DHT22;2314;48.272;11.562;2023-02-02T03:35:07;3.40;99.90
4604;DHT22;2314;48.272;11.562;2023-02-02T03:37:36;3.50;99.90
4604;DHT22;2314;48.272;11.562;2023-02-02T03:40:04;3.40;99.90
4604;DHT22;2314;48.272;11.562;2023-02-02T03:42:32;3.40;99.90
4604;DHT22;2314;48.272;11.562;2023-02-02T03:44:59;3.40;99.90
4604;DHT22;2314;48.272;11.562;2023-02-02T03:47:27;3.40;99.90
4604;DHT22;2314;48.272;11.562;2023-02-02T03:49:55;3.40;99.90
4604;DHT22;2314;48.272;11.562;2023-02-02T03:52:22;3.40;99.90
4604;DHT22;2314;48.272;11.562;2023-02-02T03:54:51;3.40;99.90
4604;DHT22;2314;48.272;11.562;2023-02-02T03:57:18;3.40;99.90
4604;DHT22;2314;48.272;11.562;2023-02-02T03:59:45;3.40;99.90
4604;DHT22;2314;48.272;11.562;2023-02-02T04:02:12;3.50;99.90
4604;DHT22;2314;48.272;11.562;2023-02-02T04:04:39;3.50;99.90
4604;DHT22;2314;48.272;11.562;2023-02-02T04:07:06;3.50;99.90
4604;DHT22;2314;48.272;11.562;2023-02-02T04:09:33;3.50;99.90
4604;DHT22;2314;48.272;11.562;2023-02-02T04:12:02;3.40;99.90
4604;DHT22;2314;48.272;11.562;2023-02-02T04:14:29;3.40;99.90
4604;DHT22;2314;48.272;11.562;2023-02-02T04:16:56;3.50;99.90
4604;DHT22;2314;48.272;11.562;2023-02-02T04:19:23;3.40;99.90
4604;DHT22;2314;48.272;11.562;2023-02-02T04:21:50;3.40;99.90
4604;DHT22;2314;48.272;11.562;2023-02-02T04:24:18;3.40;99.90
4604;DHT22;2314;48.272;11.562;2023-02-02T04:26:45;3.40;99.90
4604;DHT22;2314;48.272;11.562;2023-02-02T04:29:13;3.40;99.90
4604;DHT22;2314;48.272;11.562;2023-02-02T04:31:41;3.50;99.90
4604;DHT22;2314;48.272;11.562;2023-02-02T04:34:08;3.50;99.90
4604;DHT22;2314;48.272;11.562;2023-02-02T04:36:35;3.40;99.90
4604;DHT22;2314;48.272;11.562;2023-02-02T04:39:02;3.30;99.90
4604;DHT22;2314;48.272;11.562;2023-02-02T04:41:29;3.20;99.90
4604;DHT22;2314;48.272;11.562;2023-02-02T04:43:56;3.20;99.90
4604;DHT22;2314;48.272;11.562;2023-02-02T04:46:24;3.20;99.90
4604;DHT22;2314;48.272;11.562;2023-02-02T04:48:53;3.20;99.90
4604;DHT22;2314;48.272;11.562;2023-02-02T04:51:20;3.30;99.90
4604;DHT22;2314;48.272;11.562;2023-02-02T04:53:47;3.30;99.90
4604;DHT22;2314;48.272;11.562;2023-02-02T04:56:15;3.40;99.90
4604;DHT22;2314;48.272;11.562;2023-02-02T04:58:44;3.40;99.90
4604;DHT22;2314;48.272;11.562;2023-02-02T05:01:14;3.40;99.90
4604;DHT22;2314;48.272;11.562;2023-02-02T05:03:45;3.40;99.90
4604;DHT22;2314;48.272;11.562;2023-02-02T05:06:13;3.50;99.90
4604;DHT22;2314;48.272;11.562;2023-02-02T05:08:40;3.50;99.90
4604;DHT22;2314;48.272;11.562;2023-02-02T05:11:09;3.50;99.90
4604;DHT22;2314;48.272;11.562;2023-02-02T05:13:37;3.50;99.90
4604;DHT22;2314;48.272;11.562;2023-02-02T05:16:05;3.50;99.90
4604;DHT22;2314;48.272;11.562;2023-02-02T18:56:26;3.80;99.90
4604;DHT22;2314;48.272;11.562;2023-02-02T18:58:54;3.80;99.90
4604;DHT22;2314;48.272;11.562;2023-02-02T19:01:23;3.80;99.90
4604;DHT22;2314;48.272;11.562;2023-02-02T19:03:52;3.80;99.90
4604;DHT22;2314;48.272;11.562;2023-02-02T19:06:22;3.80;99.90
4604;DHT22;2314;48.272;11.562;2023-02-02T19:09:07;3.80;99.90
4604;DHT22;2314;48.272;11.562;2023-02-02T19:11:38;3.80;99.90
4604;DHT22;2314;48.272;11.562;2023-02-02T19:14:12;3.80;99.90
4604;DHT22;2314;48.272;11.562;2023-02-02T19:16:42;3.80;99.90
4604;DHT22;2314;48.272;11.562;2023-02-02T19:19:16;3.80;99.90
4604;DHT22;2314;48.272;11.562;2023-02-02T19:21:49;3.80;99.90
4604;DHT22;2314;48.272;11.562;2023-02-02T19:24:17;3.80;99.90
4604;DHT22;2314;48.272;11.562;2023-02-02T19:26:47;3.80;99.90
4604;DHT22;2314;48.272;11.562;2023-02-02T19:29:17;3.80;99.90
4604;DHT22;2314;48.272;11.562;2023-02-02T19:31:49;3.80;99.90
4604;DHT22;2314;48.272;11.562;2023-02-02T19:34:19;3.80;99.90
4604;DHT22;2314;48.272;11.562;2023-02-02T19:36:47;3.80;99.90
4604;DHT22;2314;48.272;11.562;2023-02-02T19:39:18;3.80;99.90
4604;DHT22;2314;48.272;11.562;2023-02-02T19:41:48;3.80;99.90
4604;DHT22;2314;48.272;11.562;2023-02-02T19:44:17;3.80;99.90
4604;DHT22;2314;48.272;11.562;2023-02-02T19:46:47;3.80;99.90
4604;DHT22;2314;48.272;11.562;2023-02-02T19:49:23;3.80;99.90
4604;DHT22;2314;48.272;11.562;2023-02-02T19:51:54;3.80;99.90
4604;DHT22;2314;48.272;11.562;2023-02-02T19:54:26;3.80;99.90
4604;DHT22;2314;48.272;11.562;2023-02-02T19:57:00;3.80;99.90
4604;DHT22;2314;48.272;11.562;2023-02-02T19:59:35;3.80;99.90
4604;DHT22;2314;48.272;11.562;2023-02-02T20:02:28;3.80;99.90
4604;DHT22;2314;48.272;11.562;2023-02-02T20:05:16;3.80;99.90
4604;DHT22;2314;48.272;11.562;2023-02-02T20:07:45;3.80;99.90
4604;DHT22;2314;48.272;11.562;2023-02-02T20:10:18;3.80;99.90
4604;DHT22;2314;48.272;11.562;2023-02-02T20:12:48;3.80;99.90
4604;DHT22;2314;48.272;11.562;2023-02-02T20:15:23;3.80;99.90
4604;DHT22;2314;48.272;11.562;2023-02-02T20:17:54;3.80;99.90
4604;DHT22;2314;48.272;11.562;2023-02-02T20:20:25;3.80;99.90
4604;DHT22;2314;48.272;11.562;2023-02-02T20:22:54;3.80;99.90
4604;DHT22;2314;48.272;11.562;2023-02-02T20:25:22;3.80;99.90
4604;DHT22;2314;48.272;11.562;2023-02-02T20:27:52;3.80;99.90
4604;DHT22;2314;48.272;11.562;2023-02-02T20:30:22;3.80;99.90
4604;DHT22;2314;48.272;11.562;2023-02-02T20:32:53;3.80;99.90
4604;DHT22;2314;48.272;11.562;2023-02-02T20:35:32;3.80;99.90
4604;DHT22;2314;48.272;11.562;2023-02-02T20:38:01;3.80;99.90
4604;DHT22;2314;48.272;11.562;2023-02-02T20:40:40;3.90;99.90
4604;DHT22;2314;48.272;11.562;2023-02-02T20:43:08;3.90;99.90
4604;DHT22;2314;48.272;11.562;2023-02-02T20:45:35;3.90;99.90
4604;DHT22;2314;48.272;11.562;2023-02-02T20:48:03;3.90;99.90
4604;DHT22;2314;48.272;11.562;2023-02-02T20:50:30;3.90;99.90
4604;DHT22;2314;48.272;11.562;2023-02-02T20:52:57;3.90;99.90
4604;DHT22;2314;48.272;11.562;2023-02-02T20:55:24;3.90;99.90
4604;DHT22;2314;48.272;11.562;2023-02-02T20:57:52;3.90;99.90
4604;DHT22;2314;48.272;11.562;2023-02-02T21:00:21;3.90;99.90
4604;DHT22;2314;48.272;11.562;2023-02-02T21:02:51;3.90;99.90
4604;DHT22;2314;48.272;11.562;2023-02-02T21:05:19;3.90;99.90
4604;DHT22;2314;48.272;11.562;2023-02-02T21:07:47;3.90;99.90
4604;DHT22;2314;48.272;11.562;2023-02-02T21:10:19;3.90;99.90
4604;DHT22;2314;48.272;11.562;2023-02-02T21:12:48;3.90;99.90
4604;DHT22;2314;48.272;11.562;2023-02-02T21:15:15;3.90;99.90
4604;DHT22;2314;48.272;11.562;2023-02-02T21:17:44;3.90;99.90
4604;DHT22;2314;48.272;11.562;2023-02-02T21:20:12;4.00;99.90
4604;DHT22;2314;48.272;11.562;2023-02-02T21:22:40;4.00;99.90
4604;DHT22;2314;48.272;11.562;2023-02-02T21:25:07;3.90;99.90
4604;DHT22;2314;48.272;11.562;2023-02-02T21:27:35;3.90;99.90
4604;DHT22;2314;48.272;11.562;2023-02-02T21:30:06;3.90;99.90
4604;DHT22;2314;48.272;11.562;2023-02-02T21:32:35;3.90;99.90
4604;DHT22;2314;48.272;11.562;2023-02-02T21:35:04;3.90;99.90
4604;DHT22;2314;48.272;11.562;2023-02-02T21:37:33;3.90;99.90
4604;DHT22;2314;48.272;11.562;2023-02-02T21:40:06;3.90;99.90
4604;DHT22;2314;48.272;11.562;2023-02-02T21:42:37;3.90;99.90
4604;DHT22;2314;48.272;11.562;2023-02-02T21:45:32;3.90;99.90
4604;DHT22;2314;48.272;11.562;2023-02-02T21:48:04;3.90;99.90
4604;DHT22;2314;48.272;11.562;2023-02-02T21:50:36;3.90;99.90
4604;DHT22;2314;48.272;11.562;2023-02-02T21:53:13;3.90;99.90
4604;DHT22;2314;48.272;11.562;2023-02-02T21:55:45;3.90;99.90
4604;DHT22;2314;48.272;11.562;2023-02-02T21:58:18;3.90;99.90
4604;DHT22;2314;48.272;11.562;2023-02-02T22:00:47;3.90;99.90
4604;DHT22;2314;48.272;11.562;2023-02-02T22:03:33;3.90;99.90
4604;DHT22;2314;48.272;11.562;2023-02-02T22:06:20;3.90;99.90
4604;DHT22;2314;48.272;11.562;2023-02-02T22:08:52;3.90;99.90
4604;DHT22;2314;48.272;11.562;2023-02-02T22:11:23;4.00;99.90
4604;DHT22;2314;48.272;11.562;2023-02-02T22:13:56;4.00;99.90
4604;DHT22;2314;48.272;11.562;2023-02-02T22:16:26;3.90;99.90
4604;DHT22;2314;48.272;11.562;2023-02-02T22:18:54;4.00;99.90
4604;DHT22;2314;48.272;11.562;2023-02-02T22:21:23;4.00;99.90
4604;DHT22;2314;48.272;11.562;2023-02-02T22:23:50;4.00;99.90
4604;DHT22;2314;48.272;11.562;2023-02-02T22:26:30;3.90;99.90
4604;DHT22;2314;48.272;11.562;2023-02-02T22:28:58;4.00;99.90
4604;DHT22;2314;48.272;11.562;2023-02-02T22:31:27;4.00;99.90
4604;DHT22;2314;48.272;11.562;2023-02-02T22:33:54;4.00;99.90
4604;DHT22;2314;48.272;11.562;2023-02-02T22:36:23;4.00;99.90
4604;DHT22;2314;48.272;11.562;2023-02-02T22:38:50;4.00;99.90
4604;DHT22;2314;48.272;11.562;2023-02-02T22:41:17;4.00;99.90
4604;DHT22;2314;48.272;11.562;2023-02-02T22:43:44;4.00;99.90
4604;DHT22;2314;48.272;11.562;2023-02-02T22:46:11;4.00;99.90
4604;DHT22;2314;48.272;11.562;2023-02-02T22:48:38;4.00;99.90
4604;DHT22;2314;48.272;11.562;2023-02-02T22:51:05;4.00;99.90
4604;DHT22;2314;48.272;11.562;2023-02-02T22:53:33;4.00;99.90
4604;DHT22;2314;48.272;11.562;2023-02-02T22:56:00;4.00;99.90
4604;DHT22;2314;48.272;11.562;2023-02-02T22:58:27;4.00;99.90
4604;DHT22;2314;48.272;11.562;2023-02-02T23:00:54;4.00;99.90
4604;DHT22;2314;48.272;11.562;2023-02-02T23:03:21;4.00;99.90
4604;DHT22;2314;48.272;11.562;2023-02-02T23:05:48;4.00;99.90
4604;DHT22;2314;48.272;11.562;2023-02-02T23:08:15;4.00;99.90
4604;DHT22;2314;48.272;11.562;2023-02-02T23:10:43;3.90;99.90
4604;DHT22;2314;48.272;11.562;2023-02-02T23:13:10;4.00;99.90
4604;DHT22;2314;48.272;11.562;2023-02-02T23:15:37;4.00;99.90
4604;DHT22;2314;48.272;11.562;2023-02-02T23:18:04;4.00;99.90
4604;DHT22;2314;48.272;11.562;2023-02-02T23:20:31;4.00;99.90
4604;DHT22;2314;48.272;11.562;2023-02-02T23:22:58;4.00;99.90
4604;DHT22;2314;48.272;11.562;2023-02-02T23:25:25;4.00;99.90
4604;DHT22;2314;48.272;11.562;2023-02-02T23:27:54;4.00;99.90
4604;DHT22;2314;48.272;11.562;2023-02-02T23:30:21;4.00;99.90
4604;DHT22;2314;48.272;11.562;2023-02-02T23:32:48;4.00;99.90
4604;DHT22;2314;48.272;11.562;2023-02-02T23:35:15;4.00;99.90
4604;DHT22;2314;48.272;11.562;2023-02-02T23:37:42;4.00;99.90
4604;DHT22;2314;48.272;11.562;2023-02-02T23:40:11;3.90;99.90
4604;DHT22;2314;48.272;11.562;2023-02-02T23:42:38;4.00;99.90
4604;DHT22;2314;48.272;11.562;2023-02-02T23:45:08;3.90;99.90
4604;DHT22;2314;48.272;11.562;2023-02-02T23:47:35;3.90;99.90
4604;DHT22;2314;48.272;11.562;2023-02-02T23:50:04;3.90;99.90
4604;DHT22;2314;48.272;11.562;2023-02-02T23:52:33;3.90;99.90
4604;DHT22;2314;48.272;11.562;2023-02-02T23:55:01;3.90;99.90
4604;DHT22;2314;48.272;11.562;2023-02-02T23:57:29;4.00;99.90
4604;DHT22;2314;48.272;11.562;2023-02-02T23:59:58;3.90;99.90
